sensor_id;sensor_type;location;lat;lon;timestamp;P1;durP1;ratioP1;P2;durP2;ratioP2
28007;SDS011;15333;50.010;20.020;2023-04-03T00:01:30;13.52;;;10.07;;
28007;SDS011;15333;50.010;20.020;2023-04-03T00:04:31;13.57;;;9.93;;
28007;SDS011;15333;50.010;20.020;2023-04-03T00:07:32;13.75;;;10.40;;
28007;SDS011;15333;50.010;20.020;2023-04-03T00:10:33;13.93;;;10.10;;
28007;SDS011;15333;50.010;20.020;2023-04-03T00:13:35;13.80;;;10.50;;
28007;SDS011;15333;50.010;20.020;2023-04-03T00:16:36;17.20;;;11.70;;
28007;SDS011;15333;50.010;20.020;2023-04-03T00:19:37;25.15;;;15.30;;
28007;SDS011;15333;50.010;20.020;2023-04-03T00:22:38;22.65;;;14.70;;
28007;SDS011;15333;50.010;20.020;2023-04-03T00:25:39;23.48;;;16.13;;
28007;SDS011;15333;50.010;20.020;2023-04-03T00:28:40;22.88;;;16.70;;
28007;SDS011;15333;50.010;20.020;2023-04-03T00:31:42;22.50;;;15.65;;
28007;SDS011;15333;50.010;20.020;2023-04-03T00:34:43;23.88;;;17.50;;
28007;SDS011;15333;50.010;20.020;2023-04-03T00:37:44;23.80;;;16.67;;
28007;SDS011;15333;50.010;20.020;2023-04-03T00:40:48;31.65;;;18.50;;
28007;SDS011;15333;50.010;20.020;2023-04-03T00:43:50;25.52;;;17.25;;
28007;SDS011;15333;50.010;20.020;2023-04-03T00:46:51;24.38;;;18.02;;
28007;SDS011;15333;50.010;20.020;2023-04-03T00:49:52;24.52;;;17.42;;
28007;SDS011;15333;50.010;20.020;2023-04-03T00:52:54;26.02;;;17.75;;
28007;SDS011;15333;50.010;20.020;2023-04-03T00:55:55;29.63;;;20.27;;
28007;SDS011;15333;50.010;20.020;2023-04-03T00:58:58;26.67;;;17.45;;
28007;SDS011;15333;50.010;20.020;2023-04-03T01:02:07;27.80;;;17.70;;
28007;SDS011;15333;50.010;20.020;2023-04-03T01:05:08;22.27;;;14.70;;
28007;SDS011;15333;50.010;20.020;2023-04-03T01:08:11;19.77;;;13.20;;
28007;SDS011;15333;50.010;20.020;2023-04-03T01:11:12;18.75;;;12.32;;
28007;SDS011;15333;50.010;20.020;2023-04-03T01:14:14;24.10;;;14.52;;
28007;SDS011;15333;50.010;20.020;2023-04-03T01:17:34;21.33;;;14.65;;
28007;SDS011;15333;50.010;20.020;2023-04-03T01:24:03;19.77;;;13.37;;
28007;SDS011;15333;50.010;20.020;2023-04-03T01:27:13;21.25;;;14.75;;
28007;SDS011;15333;50.010;20.020;2023-04-03T01:30:14;20.33;;;13.30;;
28007;SDS011;15333;50.010;20.020;2023-04-03T01:33:19;18.42;;;13.75;;
28007;SDS011;15333;50.010;20.020;2023-04-03T01:36:23;20.33;;;13.32;;
28007;SDS011;15333;50.010;20.020;2023-04-03T01:39:26;21.10;;;13.40;;
28007;SDS011;15333;50.010;20.020;2023-04-03T01:42:27;21.13;;;13.45;;
28007;SDS011;15333;50.010;20.020;2023-04-03T01:45:28;21.88;;;13.55;;
28007;SDS011;15333;50.010;20.020;2023-04-03T01:48:29;18.45;;;12.98;;
28007;SDS011;15333;50.010;20.020;2023-04-03T01:51:30;17.75;;;13.18;;
28007;SDS011;15333;50.010;20.020;2023-04-03T01:54:31;23.25;;;15.30;;
28007;SDS011;15333;50.010;20.020;2023-04-03T01:57:32;21.85;;;15.00;;
28007;SDS011;15333;50.010;20.020;2023-04-03T02:00:33;23.05;;;15.70;;
28007;SDS011;15333;50.010;20.020;2023-04-03T02:03:34;27.00;;;17.50;;
28007;SDS011;15333;50.010;20.020;2023-04-03T02:06:35;30.80;;;18.27;;
28007;SDS011;15333;50.010;20.020;2023-04-03T02:09:36;30.52;;;19.08;;
28007;SDS011;15333;50.010;20.020;2023-04-03T02:12:37;27.58;;;18.50;;
28007;SDS011;15333;50.010;20.020;2023-04-03T02:15:38;28.85;;;17.88;;
28007;SDS011;15333;50.010;20.020;2023-04-03T02:18:40;24.33;;;16.63;;
28007;SDS011;15333;50.010;20.020;2023-04-03T02:21:41;23.50;;;16.38;;
28007;SDS011;15333;50.010;20.020;2023-04-03T02:24:42;24.05;;;16.77;;
28007;SDS011;15333;50.010;20.020;2023-04-03T02:27:43;20.75;;;14.32;;
28007;SDS011;15333;50.010;20.020;2023-04-03T02:30:43;25.08;;;16.05;;
28007;SDS011;15333;50.010;20.020;2023-04-03T02:33:45;21.63;;;13.75;;
28007;SDS011;15333;50.010;20.020;2023-04-03T02:36:48;24.35;;;15.70;;
28007;SDS011;15333;50.010;20.020;2023-04-03T02:39:51;23.13;;;16.20;;
28007;SDS011;15333;50.010;20.020;2023-04-03T02:42:52;25.17;;;16.15;;
28007;SDS011;15333;50.010;20.020;2023-04-03T02:45:54;20.65;;;14.73;;
28007;SDS011;15333;50.010;20.020;2023-04-03T02:48:55;20.80;;;12.90;;
28007;SDS011;15333;50.010;20.020;2023-04-03T02:51:56;12.65;;;9.32;;
28007;SDS011;15333;50.010;20.020;2023-04-03T02:54:57;12.93;;;8.30;;
28007;SDS011;15333;50.010;20.020;2023-04-03T02:57:58;12.38;;;9.00;;
28007;SDS011;15333;50.010;20.020;2023-04-03T03:00:59;13.48;;;9.32;;
28007;SDS011;15333;50.010;20.020;2023-04-03T03:04:00;13.98;;;10.95;;
28007;SDS011;15333;50.010;20.020;2023-04-03T03:07:01;15.73;;;10.73;;
28007;SDS011;15333;50.010;20.020;2023-04-03T03:10:03;15.80;;;11.52;;
28007;SDS011;15333;50.010;20.020;2023-04-03T03:13:04;17.13;;;11.45;;
28007;SDS011;15333;50.010;20.020;2023-04-03T03:16:05;17.50;;;11.50;;
28007;SDS011;15333;50.010;20.020;2023-04-03T03:19:06;21.67;;;13.65;;
28007;SDS011;15333;50.010;20.020;2023-04-03T03:22:08;15.30;;;11.02;;
28007;SDS011;15333;50.010;20.020;2023-04-03T03:25:08;12.13;;;9.40;;
28007;SDS011;15333;50.010;20.020;2023-04-03T03:28:11;11.88;;;8.80;;
28007;SDS011;15333;50.010;20.020;2023-04-03T03:31:12;11.98;;;9.15;;
28007;SDS011;15333;50.010;20.020;2023-04-03T03:34:15;15.75;;;10.40;;
28007;SDS011;15333;50.010;20.020;2023-04-03T03:37:15;16.67;;;12.45;;
28007;SDS011;15333;50.010;20.020;2023-04-03T03:40:16;19.60;;;12.43;;
28007;SDS011;15333;50.010;20.020;2023-04-03T03:43:17;18.58;;;12.85;;
28007;SDS011;15333;50.010;20.020;2023-04-03T03:46:21;20.83;;;12.10;;
28007;SDS011;15333;50.010;20.020;2023-04-03T03:49:21;15.02;;;11.25;;
28007;SDS011;15333;50.010;20.020;2023-04-03T03:52:23;14.98;;;9.95;;
28007;SDS011;15333;50.010;20.020;2023-04-03T03:55:24;10.60;;;8.35;;
28007;SDS011;15333;50.010;20.020;2023-04-03T03:58:28;13.52;;;9.02;;
28007;SDS011;15333;50.010;20.020;2023-04-03T04:01:29;11.95;;;8.40;;
28007;SDS011;15333;50.010;20.020;2023-04-03T04:04:31;15.10;;;9.40;;
28007;SDS011;15333;50.010;20.020;2023-04-03T04:07:32;17.55;;;11.20;;
28007;SDS011;15333;50.010;20.020;2023-04-03T04:10:35;14.05;;;10.50;;
28007;SDS011;15333;50.010;20.020;2023-04-03T04:13:37;14.25;;;10.05;;
28007;SDS011;15333;50.010;20.020;2023-04-03T04:16:39;13.85;;;10.60;;
28007;SDS011;15333;50.010;20.020;2023-04-03T04:19:45;14.32;;;9.98;;
28007;SDS011;15333;50.010;20.020;2023-04-03T04:22:46;11.60;;;9.07;;
28007;SDS011;15333;50.010;20.020;2023-04-03T04:25:47;12.10;;;9.07;;
28007;SDS011;15333;50.010;20.020;2023-04-03T04:28:49;12.88;;;8.32;;
28007;SDS011;15333;50.010;20.020;2023-04-03T04:31:52;12.70;;;8.65;;
28007;SDS011;15333;50.010;20.020;2023-04-03T04:34:53;18.27;;;11.60;;
28007;SDS011;15333;50.010;20.020;2023-04-03T04:37:54;18.27;;;11.50;;
28007;SDS011;15333;50.010;20.020;2023-04-03T04:40:55;19.25;;;12.70;;
28007;SDS011;15333;50.010;20.020;2023-04-03T04:43:57;11.32;;;9.15;;
28007;SDS011;15333;50.010;20.020;2023-04-03T04:46:59;11.43;;;8.80;;
28007;SDS011;15333;50.010;20.020;2023-04-03T04:50:01;12.13;;;8.90;;
28007;SDS011;15333;50.010;20.020;2023-04-03T04:53:03;12.13;;;7.72;;
28007;SDS011;15333;50.010;20.020;2023-04-03T04:56:04;11.30;;;7.38;;
28007;SDS011;15333;50.010;20.020;2023-04-03T04:59:08;10.35;;;7.40;;
28007;SDS011;15333;50.010;20.020;2023-04-03T05:02:09;11.02;;;7.47;;
28007;SDS011;15333;50.010;20.020;2023-04-03T05:05:12;13.27;;;9.00;;
28007;SDS011;15333;50.010;20.020;2023-04-03T05:08:13;15.30;;;9.65;;
28007;SDS011;15333;50.010;20.020;2023-04-03T05:11:16;17.05;;;9.73;;
28007;SDS011;15333;50.010;20.020;2023-04-03T05:14:18;18.85;;;10.02;;
28007;SDS011;15333;50.010;20.020;2023-04-03T05:17:20;15.35;;;8.98;;
28007;SDS011;15333;50.010;20.020;2023-04-03T05:20:25;15.02;;;8.40;;
28007;SDS011;15333;50.010;20.020;2023-04-03T05:23:26;12.68;;;8.88;;
28007;SDS011;15333;50.010;20.020;2023-04-03T05:26:28;16.05;;;8.68;;
28007;SDS011;15333;50.010;20.020;2023-04-03T05:29:33;13.55;;;8.98;;
28007;SDS011;15333;50.010;20.020;2023-04-03T05:32:35;15.85;;;9.68;;
28007;SDS011;15333;50.010;20.020;2023-04-03T05:35:52;16.02;;;9.40;;
28007;SDS011;15333;50.010;20.020;2023-04-03T05:38:58;13.32;;;8.85;;
28007;SDS011;15333;50.010;20.020;2023-04-03T05:42:00;14.20;;;8.90;;
28007;SDS011;15333;50.010;20.020;2023-04-03T05:45:02;15.18;;;8.95;;
28007;SDS011;15333;50.010;20.020;2023-04-03T05:48:03;14.65;;;9.45;;
28007;SDS011;15333;50.010;20.020;2023-04-03T05:51:05;14.18;;;9.85;;
28007;SDS011;15333;50.010;20.020;2023-04-03T05:54:14;14.95;;;9.68;;
28007;SDS011;15333;50.010;20.020;2023-04-03T05:57:18;14.82;;;9.48;;
28007;SDS011;15333;50.010;20.020;2023-04-03T06:00:20;13.82;;;8.82;;
28007;SDS011;15333;50.010;20.020;2023-04-03T06:03:30;12.35;;;7.85;;
28007;SDS011;15333;50.010;20.020;2023-04-03T06:06:50;13.75;;;8.00;;
28007;SDS011;15333;50.010;20.020;2023-04-03T06:09:54;12.55;;;7.72;;
28007;SDS011;15333;50.010;20.020;2023-04-03T06:12:57;12.52;;;7.10;;
28007;SDS011;15333;50.010;20.020;2023-04-03T06:15:57;14.45;;;7.75;;
28007;SDS011;15333;50.010;20.020;2023-04-03T06:18:59;12.95;;;8.18;;
28007;SDS011;15333;50.010;20.020;2023-04-03T06:22:00;14.63;;;7.45;;
28007;SDS011;15333;50.010;20.020;2023-04-03T06:25:01;10.80;;;6.90;;
28007;SDS011;15333;50.010;20.020;2023-04-03T06:28:02;13.20;;;6.97;;
28007;SDS011;15333;50.010;20.020;2023-04-03T06:31:03;15.82;;;6.30;;
28007;SDS011;15333;50.010;20.020;2023-04-03T06:34:04;12.27;;;6.13;;
28007;SDS011;15333;50.010;20.020;2023-04-03T06:37:28;12.05;;;5.78;;
28007;SDS011;15333;50.010;20.020;2023-04-03T06:40:29;10.63;;;5.00;;
28007;SDS011;15333;50.010;20.020;2023-04-03T06:43:30;8.85;;;4.13;;
28007;SDS011;15333;50.010;20.020;2023-04-03T06:46:32;11.38;;;4.55;;
28007;SDS011;15333;50.010;20.020;2023-04-03T06:49:33;11.60;;;4.35;;
28007;SDS011;15333;50.010;20.020;2023-04-03T06:52:34;7.35;;;3.72;;
28007;SDS011;15333;50.010;20.020;2023-04-03T06:55:35;10.32;;;4.20;;
28007;SDS011;15333;50.010;20.020;2023-04-03T06:58:36;7.90;;;3.70;;
28007;SDS011;15333;50.010;20.020;2023-04-03T07:01:37;9.55;;;3.92;;
28007;SDS011;15333;50.010;20.020;2023-04-03T07:04:38;9.43;;;3.92;;
28007;SDS011;15333;50.010;20.020;2023-04-03T07:07:39;8.07;;;3.72;;
28007;SDS011;15333;50.010;20.020;2023-04-03T07:10:40;8.90;;;3.65;;
28007;SDS011;15333;50.010;20.020;2023-04-03T07:13:42;10.68;;;5.00;;
28007;SDS011;15333;50.010;20.020;2023-04-03T07:16:43;11.32;;;5.28;;
28007;SDS011;15333;50.010;20.020;2023-04-03T07:19:44;10.95;;;4.90;;
28007;SDS011;15333;50.010;20.020;2023-04-03T07:22:44;13.02;;;4.97;;
28007;SDS011;15333;50.010;20.020;2023-04-03T07:25:46;12.13;;;5.05;;
28007;SDS011;15333;50.010;20.020;2023-04-03T07:28:48;11.88;;;4.78;;
28007;SDS011;15333;50.010;20.020;2023-04-03T07:31:49;12.20;;;4.35;;
28007;SDS011;15333;50.010;20.020;2023-04-03T07:34:50;10.45;;;3.95;;
28007;SDS011;15333;50.010;20.020;2023-04-03T07:37:51;10.02;;;3.78;;
28007;SDS011;15333;50.010;20.020;2023-04-03T07:40:52;7.57;;;3.80;;
28007;SDS011;15333;50.010;20.020;2023-04-03T07:43:53;9.38;;;3.88;;
28007;SDS011;15333;50.010;20.020;2023-04-03T07:46:55;12.27;;;5.20;;
28007;SDS011;15333;50.010;20.020;2023-04-03T07:49:56;8.23;;;4.00;;
28007;SDS011;15333;50.010;20.020;2023-04-03T07:52:58;13.10;;;5.05;;
28007;SDS011;15333;50.010;20.020;2023-04-03T07:55:59;12.10;;;4.05;;
28007;SDS011;15333;50.010;20.020;2023-04-03T07:59:00;8.23;;;3.25;;
28007;SDS011;15333;50.010;20.020;2023-04-03T08:02:02;8.65;;;3.67;;
28007;SDS011;15333;50.010;20.020;2023-04-03T08:05:05;9.65;;;3.80;;
28007;SDS011;15333;50.010;20.020;2023-04-03T08:08:06;8.63;;;3.38;;
28007;SDS011;15333;50.010;20.020;2023-04-03T08:11:09;8.10;;;3.95;;
28007;SDS011;15333;50.010;20.020;2023-04-03T08:14:11;6.43;;;2.67;;
28007;SDS011;15333;50.010;20.020;2023-04-03T08:17:16;7.65;;;3.53;;
28007;SDS011;15333;50.010;20.020;2023-04-03T08:20:17;7.75;;;3.45;;
28007;SDS011;15333;50.010;20.020;2023-04-03T08:23:18;10.23;;;4.20;;
28007;SDS011;15333;50.010;20.020;2023-04-03T08:26:21;6.97;;;3.38;;
28007;SDS011;15333;50.010;20.020;2023-04-03T08:29:22;9.68;;;4.78;;
28007;SDS011;15333;50.010;20.020;2023-04-03T08:32:23;10.55;;;3.85;;
28007;SDS011;15333;50.010;20.020;2023-04-03T08:35:24;7.40;;;3.58;;
28007;SDS011;15333;50.010;20.020;2023-04-03T08:38:26;13.60;;;6.32;;
28007;SDS011;15333;50.010;20.020;2023-04-03T08:41:32;13.18;;;5.72;;
28007;SDS011;15333;50.010;20.020;2023-04-03T08:44:47;10.98;;;4.30;;
28007;SDS011;15333;50.010;20.020;2023-04-03T08:51:24;8.75;;;4.68;;
28007;SDS011;15333;50.010;20.020;2023-04-03T08:54:28;12.70;;;5.95;;
28007;SDS011;15333;50.010;20.020;2023-04-03T08:57:34;8.88;;;4.25;;
28007;SDS011;15333;50.010;20.020;2023-04-03T09:03:52;10.27;;;4.82;;
28007;SDS011;15333;50.010;20.020;2023-04-03T09:06:54;8.98;;;3.92;;
28007;SDS011;15333;50.010;20.020;2023-04-03T09:10:00;10.38;;;4.05;;
28007;SDS011;15333;50.010;20.020;2023-04-03T09:16:35;12.80;;;4.45;;
28007;SDS011;15333;50.010;20.020;2023-04-03T09:22:52;7.72;;;3.80;;
28007;SDS011;15333;50.010;20.020;2023-04-03T09:25:56;10.70;;;4.32;;
28007;SDS011;15333;50.010;20.020;2023-04-03T09:29:05;8.38;;;4.90;;
28007;SDS011;15333;50.010;20.020;2023-04-03T09:35:38;7.47;;;3.88;;
28007;SDS011;15333;50.010;20.020;2023-04-03T09:38:41;11.05;;;4.60;;
28007;SDS011;15333;50.010;20.020;2023-04-03T09:41:54;8.18;;;4.88;;
28007;SDS011;15333;50.010;20.020;2023-04-03T09:45:04;9.57;;;4.93;;
28007;SDS011;15333;50.010;20.020;2023-04-03T09:51:13;13.40;;;5.70;;
28007;SDS011;15333;50.010;20.020;2023-04-03T09:57:37;12.75;;;5.43;;
28007;SDS011;15333;50.010;20.020;2023-04-03T10:00:39;12.60;;;5.03;;
28007;SDS011;15333;50.010;20.020;2023-04-03T10:03:40;9.95;;;5.15;;
28007;SDS011;15333;50.010;20.020;2023-04-03T10:06:56;9.50;;;4.35;;
28007;SDS011;15333;50.010;20.020;2023-04-03T10:09:57;7.90;;;4.50;;
28007;SDS011;15333;50.010;20.020;2023-04-03T10:13:09;8.35;;;4.80;;
28007;SDS011;15333;50.010;20.020;2023-04-03T10:16:12;9.82;;;4.70;;
28007;SDS011;15333;50.010;20.020;2023-04-03T10:22:37;8.43;;;4.30;;
28007;SDS011;15333;50.010;20.020;2023-04-03T10:26:15;13.73;;;5.03;;
28007;SDS011;15333;50.010;20.020;2023-04-03T10:33:01;9.13;;;4.53;;
28007;SDS011;15333;50.010;20.020;2023-04-03T10:36:14;7.25;;;4.13;;
28007;SDS011;15333;50.010;20.020;2023-04-03T10:39:30;8.20;;;3.80;;
28007;SDS011;15333;50.010;20.020;2023-04-03T10:46:08;7.95;;;3.75;;
28007;SDS011;15333;50.010;20.020;2023-04-03T10:55:43;7.95;;;3.88;;
28007;SDS011;15333;50.010;20.020;2023-04-03T10:58:54;9.73;;;4.28;;
28007;SDS011;15333;50.010;20.020;2023-04-03T11:01:59;6.80;;;4.10;;
28007;SDS011;15333;50.010;20.020;2023-04-03T11:05:14;7.22;;;3.67;;
28007;SDS011;15333;50.010;20.020;2023-04-03T11:11:39;11.20;;;4.57;;
28007;SDS011;15333;50.010;20.020;2023-04-03T11:14:41;12.25;;;4.47;;
28007;SDS011;15333;50.010;20.020;2023-04-03T11:17:45;11.18;;;4.47;;
28007;SDS011;15333;50.010;20.020;2023-04-03T11:21:01;9.60;;;4.35;;
28007;SDS011;15333;50.010;20.020;2023-04-03T11:24:29;8.07;;;4.38;;
28007;SDS011;15333;50.010;20.020;2023-04-03T11:27:55;10.40;;;4.30;;
28007;SDS011;15333;50.010;20.020;2023-04-03T11:34:21;11.13;;;4.18;;
28007;SDS011;15333;50.010;20.020;2023-04-03T11:37:40;8.32;;;3.47;;
28007;SDS011;15333;50.010;20.020;2023-04-03T11:40:45;7.07;;;3.88;;
28007;SDS011;15333;50.010;20.020;2023-04-03T11:43:59;8.75;;;3.83;;
28007;SDS011;15333;50.010;20.020;2023-04-03T11:47:01;12.85;;;4.78;;
28007;SDS011;15333;50.010;20.020;2023-04-03T11:50:03;9.93;;;4.13;;
28007;SDS011;15333;50.010;20.020;2023-04-03T11:59:26;7.72;;;3.95;;
28007;SDS011;15333;50.010;20.020;2023-04-03T12:02:37;8.48;;;4.07;;
28007;SDS011;15333;50.010;20.020;2023-04-03T12:05:38;12.43;;;4.13;;
28007;SDS011;15333;50.010;20.020;2023-04-03T12:11:40;6.80;;;3.72;;
28007;SDS011;15333;50.010;20.020;2023-04-03T12:14:41;7.47;;;3.92;;
28007;SDS011;15333;50.010;20.020;2023-04-03T12:17:43;6.75;;;3.47;;
28007;SDS011;15333;50.010;20.020;2023-04-03T12:20:56;6.30;;;3.47;;
28007;SDS011;15333;50.010;20.020;2023-04-03T12:27:14;9.02;;;3.50;;
28007;SDS011;15333;50.010;20.020;2023-04-03T12:30:22;8.35;;;3.67;;
28007;SDS011;15333;50.010;20.020;2023-04-03T12:33:51;9.70;;;3.35;;
28007;SDS011;15333;50.010;20.020;2023-04-03T12:46:50;6.50;;;3.53;;
28007;SDS011;15333;50.010;20.020;2023-04-03T12:49:52;8.13;;;3.13;;
28007;SDS011;15333;50.010;20.020;2023-04-03T12:52:56;10.43;;;3.55;;
28007;SDS011;15333;50.010;20.020;2023-04-03T12:59:28;6.20;;;3.58;;
28007;SDS011;15333;50.010;20.020;2023-04-03T13:02:30;5.10;;;2.92;;
28007;SDS011;15333;50.010;20.020;2023-04-03T13:05:34;6.38;;;2.90;;
28007;SDS011;15333;50.010;20.020;2023-04-03T13:08:35;7.22;;;2.92;;
28007;SDS011;15333;50.010;20.020;2023-04-03T13:11:37;5.78;;;3.13;;
28007;SDS011;15333;50.010;20.020;2023-04-03T13:14:50;4.93;;;2.85;;
28007;SDS011;15333;50.010;20.020;2023-04-03T13:17:53;5.22;;;2.75;;
28007;SDS011;15333;50.010;20.020;2023-04-03T13:21:07;7.72;;;2.75;;
28007;SDS011;15333;50.010;20.020;2023-04-03T13:24:15;5.03;;;2.78;;
28007;SDS011;15333;50.010;20.020;2023-04-03T13:27:16;5.55;;;2.60;;
28007;SDS011;15333;50.010;20.020;2023-04-03T13:30:23;7.32;;;3.30;;
28007;SDS011;15333;50.010;20.020;2023-04-03T13:33:28;5.05;;;2.78;;
28007;SDS011;15333;50.010;20.020;2023-04-03T13:36:33;9.02;;;3.15;;
28007;SDS011;15333;50.010;20.020;2023-04-03T13:39:37;7.50;;;3.63;;
28007;SDS011;15333;50.010;20.020;2023-04-03T13:42:41;7.50;;;3.53;;
28007;SDS011;15333;50.010;20.020;2023-04-03T13:45:53;8.25;;;3.30;;
28007;SDS011;15333;50.010;20.020;2023-04-03T13:49:17;8.27;;;3.40;;
28007;SDS011;15333;50.010;20.020;2023-04-03T13:52:30;4.60;;;2.72;;
28007;SDS011;15333;50.010;20.020;2023-04-03T13:55:36;7.28;;;2.63;;
28007;SDS011;15333;50.010;20.020;2023-04-03T14:02:53;5.45;;;3.33;;
28007;SDS011;15333;50.010;20.020;2023-04-03T14:05:34;10.07;;;3.15;;
28007;SDS011;15333;50.010;20.020;2023-04-03T14:08:36;6.63;;;2.85;;
28007;SDS011;15333;50.010;20.020;2023-04-03T14:11:37;6.78;;;3.03;;
28007;SDS011;15333;50.010;20.020;2023-04-03T14:14:38;7.15;;;3.30;;
28007;SDS011;15333;50.010;20.020;2023-04-03T14:17:40;7.50;;;3.40;;
28007;SDS011;15333;50.010;20.020;2023-04-03T14:20:43;10.45;;;3.65;;
28007;SDS011;15333;50.010;20.020;2023-04-03T14:23:44;8.65;;;4.00;;
28007;SDS011;15333;50.010;20.020;2023-04-03T14:26:47;9.25;;;3.85;;
28007;SDS011;15333;50.010;20.020;2023-04-03T14:29:49;5.75;;;3.15;;
28007;SDS011;15333;50.010;20.020;2023-04-03T14:32:52;8.75;;;3.63;;
28007;SDS011;15333;50.010;20.020;2023-04-03T14:35:53;8.07;;;3.85;;
28007;SDS011;15333;50.010;20.020;2023-04-03T14:38:55;6.28;;;3.45;;
28007;SDS011;15333;50.010;20.020;2023-04-03T14:41:56;11.25;;;3.40;;
28007;SDS011;15333;50.010;20.020;2023-04-03T14:44:58;7.32;;;3.22;;
28007;SDS011;15333;50.010;20.020;2023-04-03T14:48:00;7.10;;;3.63;;
28007;SDS011;15333;50.010;20.020;2023-04-03T14:51:03;9.18;;;3.75;;
28007;SDS011;15333;50.010;20.020;2023-04-03T14:54:05;8.93;;;3.95;;
28007;SDS011;15333;50.010;20.020;2023-04-03T14:57:08;6.75;;;3.70;;
28007;SDS011;15333;50.010;20.020;2023-04-03T15:00:17;8.45;;;3.30;;
28007;SDS011;15333;50.010;20.020;2023-04-03T15:03:20;9.40;;;4.25;;
28007;SDS011;15333;50.010;20.020;2023-04-03T15:06:23;10.02;;;3.33;;
28007;SDS011;15333;50.010;20.020;2023-04-03T15:09:26;5.53;;;3.25;;
28007;SDS011;15333;50.010;20.020;2023-04-03T15:12:28;6.25;;;3.30;;
28007;SDS011;15333;50.010;20.020;2023-04-03T15:15:29;8.48;;;3.70;;
28007;SDS011;15333;50.010;20.020;2023-04-03T15:18:31;6.15;;;3.63;;
28007;SDS011;15333;50.010;20.020;2023-04-03T15:21:36;10.13;;;3.78;;
28007;SDS011;15333;50.010;20.020;2023-04-03T15:24:38;8.82;;;3.53;;
28007;SDS011;15333;50.010;20.020;2023-04-03T15:27:39;6.28;;;3.35;;
28007;SDS011;15333;50.010;20.020;2023-04-03T15:30:40;8.05;;;3.33;;
28007;SDS011;15333;50.010;20.020;2023-04-03T15:33:41;6.45;;;3.30;;
28007;SDS011;15333;50.010;20.020;2023-04-03T15:36:42;9.30;;;3.67;;
28007;SDS011;15333;50.010;20.020;2023-04-03T15:39:43;4.70;;;2.65;;
28007;SDS011;15333;50.010;20.020;2023-04-03T15:42:44;6.43;;;3.03;;
28007;SDS011;15333;50.010;20.020;2023-04-03T15:45:45;10.85;;;3.72;;
28007;SDS011;15333;50.010;20.020;2023-04-03T15:48:46;8.10;;;3.38;;
28007;SDS011;15333;50.010;20.020;2023-04-03T15:51:47;8.75;;;3.28;;
28007;SDS011;15333;50.010;20.020;2023-04-03T15:54:48;9.57;;;3.63;;
28007;SDS011;15333;50.010;20.020;2023-04-03T15:57:49;6.82;;;3.38;;
28007;SDS011;15333;50.010;20.020;2023-04-03T16:00:50;8.15;;;3.22;;
28007;SDS011;15333;50.010;20.020;2023-04-03T16:03:52;9.10;;;3.50;;
28007;SDS011;15333;50.010;20.020;2023-04-03T16:06:53;8.48;;;3.20;;
28007;SDS011;15333;50.010;20.020;2023-04-03T16:09:54;7.30;;;3.50;;
28007;SDS011;15333;50.010;20.020;2023-04-03T16:12:55;9.73;;;3.45;;
28007;SDS011;15333;50.010;20.020;2023-04-03T16:15:56;7.18;;;2.97;;
28007;SDS011;15333;50.010;20.020;2023-04-03T16:18:57;6.35;;;3.22;;
28007;SDS011;15333;50.010;20.020;2023-04-03T16:21:58;7.35;;;2.95;;
28007;SDS011;15333;50.010;20.020;2023-04-03T16:24:59;6.20;;;3.08;;
28007;SDS011;15333;50.010;20.020;2023-04-03T16:28:00;8.90;;;3.55;;
28007;SDS011;15333;50.010;20.020;2023-04-03T16:31:01;5.72;;;3.17;;
28007;SDS011;15333;50.010;20.020;2023-04-03T16:34:03;7.40;;;3.10;;
28007;SDS011;15333;50.010;20.020;2023-04-03T16:37:04;9.85;;;3.85;;
28007;SDS011;15333;50.010;20.020;2023-04-03T16:40:05;7.25;;;3.50;;
28007;SDS011;15333;50.010;20.020;2023-04-03T16:43:07;9.07;;;3.90;;
28007;SDS011;15333;50.010;20.020;2023-04-03T16:46:08;6.20;;;3.13;;
28007;SDS011;15333;50.010;20.020;2023-04-03T16:49:09;7.93;;;3.33;;
28007;SDS011;15333;50.010;20.020;2023-04-03T16:52:10;7.65;;;3.60;;
28007;SDS011;15333;50.010;20.020;2023-04-03T16:55:11;11.82;;;3.28;;
28007;SDS011;15333;50.010;20.020;2023-04-03T16:58:12;6.03;;;3.25;;
28007;SDS011;15333;50.010;20.020;2023-04-03T17:01:16;6.07;;;3.50;;
28007;SDS011;15333;50.010;20.020;2023-04-03T17:04:18;10.35;;;4.15;;
28007;SDS011;15333;50.010;20.020;2023-04-03T17:07:19;8.57;;;3.60;;
28007;SDS011;15333;50.010;20.020;2023-04-03T17:10:21;10.50;;;3.47;;
28007;SDS011;15333;50.010;20.020;2023-04-03T17:13:22;7.07;;;3.38;;
28007;SDS011;15333;50.010;20.020;2023-04-03T17:16:23;9.18;;;3.60;;
28007;SDS011;15333;50.010;20.020;2023-04-03T17:19:24;9.20;;;3.85;;
28007;SDS011;15333;50.010;20.020;2023-04-03T17:22:27;8.90;;;3.72;;
28007;SDS011;15333;50.010;20.020;2023-04-03T17:25:29;7.60;;;3.75;;
28007;SDS011;15333;50.010;20.020;2023-04-03T17:28:30;7.65;;;3.47;;
28007;SDS011;15333;50.010;20.020;2023-04-03T17:31:31;11.93;;;4.45;;
28007;SDS011;15333;50.010;20.020;2023-04-03T17:34:32;8.63;;;4.30;;
28007;SDS011;15333;50.010;20.020;2023-04-03T17:37:33;10.68;;;4.43;;
28007;SDS011;15333;50.010;20.020;2023-04-03T17:40:34;10.10;;;4.72;;
28007;SDS011;15333;50.010;20.020;2023-04-03T17:43:35;9.80;;;4.78;;
28007;SDS011;15333;50.010;20.020;2023-04-03T17:46:37;8.00;;;4.35;;
28007;SDS011;15333;50.010;20.020;2023-04-03T17:49:38;14.98;;;5.05;;
28007;SDS011;15333;50.010;20.020;2023-04-03T17:52:39;8.38;;;4.22;;
28007;SDS011;15333;50.010;20.020;2023-04-03T17:55:40;11.65;;;4.18;;
28007;SDS011;15333;50.010;20.020;2023-04-03T17:58:41;8.63;;;4.10;;
28007;SDS011;15333;50.010;20.020;2023-04-03T18:01:44;12.07;;;4.75;;
28007;SDS011;15333;50.010;20.020;2023-04-03T18:04:46;13.60;;;5.13;;
28007;SDS011;15333;50.010;20.020;2023-04-03T18:07:47;12.23;;;4.88;;
28007;SDS011;15333;50.010;20.020;2023-04-03T18:10:49;19.02;;;5.70;;
28007;SDS011;15333;50.010;20.020;2023-04-03T18:13:51;12.70;;;5.43;;
28007;SDS011;15333;50.010;20.020;2023-04-03T18:16:53;12.75;;;5.32;;
28007;SDS011;15333;50.010;20.020;2023-04-03T18:19:56;13.00;;;5.53;;
28007;SDS011;15333;50.010;20.020;2023-04-03T18:22:57;13.05;;;5.85;;
28007;SDS011;15333;50.010;20.020;2023-04-03T18:25:59;17.80;;;7.20;;
28007;SDS011;15333;50.010;20.020;2023-04-03T18:29:02;20.70;;;6.45;;
28007;SDS011;15333;50.010;20.020;2023-04-03T18:32:04;14.98;;;6.18;;
28007;SDS011;15333;50.010;20.020;2023-04-03T18:35:07;12.55;;;6.90;;
28007;SDS011;15333;50.010;20.020;2023-04-03T18:38:08;15.35;;;6.30;;
28007;SDS011;15333;50.010;20.020;2023-04-03T18:41:09;21.70;;;7.35;;
28007;SDS011;15333;50.010;20.020;2023-04-03T18:44:11;16.27;;;6.97;;
28007;SDS011;15333;50.010;20.020;2023-04-03T18:47:18;14.25;;;6.05;;
28007;SDS011;15333;50.010;20.020;2023-04-03T18:50:19;13.25;;;6.32;;
28007;SDS011;15333;50.010;20.020;2023-04-03T18:53:20;12.63;;;6.70;;
28007;SDS011;15333;50.010;20.020;2023-04-03T18:56:22;17.15;;;6.68;;
28007;SDS011;15333;50.010;20.020;2023-04-03T18:59:23;15.48;;;7.50;;
28007;SDS011;15333;50.010;20.020;2023-04-03T19:02:24;17.52;;;6.28;;
28007;SDS011;15333;50.010;20.020;2023-04-03T19:05:26;13.45;;;6.70;;
28007;SDS011;15333;50.010;20.020;2023-04-03T19:08:28;14.93;;;6.70;;
28007;SDS011;15333;50.010;20.020;2023-04-03T19:11:30;17.33;;;6.88;;
28007;SDS011;15333;50.010;20.020;2023-04-03T19:14:31;15.27;;;7.55;;